Terminal Aerodrome Forecast
Issued by NWS Tampa Bay Area, FL

Home | Current Version | Previous Version | Text Only | Print | Product List | Glossary On
Versions: 1 2 3 4 5 6 7 8 9 10 11 12 13 14 15 16 17 18 19 20 21
000
FTUS42 KTBW 031700
TAFSRQ
TAF
KSRQ 031739Z 0318/0418 12010KT P6SM BKN040
     FM032100 20008KT P6SM SCT040 SCT250
     FM032300 24006KT P6SM SCT050 SCT250
     FM040100 VRB03KT P6SM FEW050 SCT250
     FM040800 13004KT 4SM BR SCT010 SCT250
      TEMPO 0409/0413 1SM BR BKN010
     FM041400 15010KT P6SM SCT015 SCT250
     FM041700 18014KT P6SM SCT035 SCT250=

USA.gov is the U.S. government's official web portal to all federal, state and local government web resources and services.